sensor_id;sensor_type;location;lat;lon;timestamp;temperature;humidity
6270;DHT22;3168;51.684;6.954;2023-06-10T00:00:38;21.00;1.00
6270;DHT22;3168;51.684;6.954;2023-06-10T00:03:04;20.90;1.00
6270;DHT22;3168;51.684;6.954;2023-06-10T00:05:30;20.80;1.00
6270;DHT22;3168;51.684;6.954;2023-06-10T00:07:56;20.80;1.00
6270;DHT22;3168;51.684;6.954;2023-06-10T00:10:22;20.60;1.00
6270;DHT22;3168;51.684;6.954;2023-06-10T00:12:47;20.50;1.00
6270;DHT22;3168;51.684;6.954;2023-06-10T00:15:14;20.40;1.00
6270;DHT22;3168;51.684;6.954;2023-06-10T00:17:39;20.40;1.00
6270;DHT22;3168;51.684;6.954;2023-06-10T00:20:08;20.40;1.00
6270;DHT22;3168;51.684;6.954;2023-06-10T00:22:34;20.30;1.00
6270;DHT22;3168;51.684;6.954;2023-06-10T00:25:00;20.30;1.00
6270;DHT22;3168;51.684;6.954;2023-06-10T00:27:26;20.30;1.00
6270;DHT22;3168;51.684;6.954;2023-06-10T00:29:52;20.40;1.00
6270;DHT22;3168;51.684;6.954;2023-06-10T00:32:18;20.50;1.00
6270;DHT22;3168;51.684;6.954;2023-06-10T00:34:44;20.40;1.00
6270;DHT22;3168;51.684;6.954;2023-06-10T00:37:10;20.50;1.00
6270;DHT22;3168;51.684;6.954;2023-06-10T00:39:35;20.50;1.00
6270;DHT22;3168;51.684;6.954;2023-06-10T00:42:01;20.40;1.00
6270;DHT22;3168;51.684;6.954;2023-06-10T00:44:27;20.50;1.00
6270;DHT22;3168;51.684;6.954;2023-06-10T00:46:53;20.50;1.00
6270;DHT22;3168;51.684;6.954;2023-06-10T00:49:19;20.30;1.00
6270;DHT22;3168;51.684;6.954;2023-06-10T00:51:45;20.20;1.00
6270;DHT22;3168;51.684;6.954;2023-06-10T00:54:11;20.10;1.00
6270;DHT22;3168;51.684;6.954;2023-06-10T00:56:37;20.10;1.00
6270;DHT22;3168;51.684;6.954;2023-06-10T00:59:03;20.00;1.00
6270;DHT22;3168;51.684;6.954;2023-06-10T01:01:28;19.90;1.00
6270;DHT22;3168;51.684;6.954;2023-06-10T01:03:54;19.90;1.00
6270;DHT22;3168;51.684;6.954;2023-06-10T01:06:27;19.90;1.00
6270;DHT22;3168;51.684;6.954;2023-06-10T01:08:54;19.90;1.00
6270;DHT22;3168;51.684;6.954;2023-06-10T01:11:19;19.80;1.00
6270;DHT22;3168;51.684;6.954;2023-06-10T01:13:43;19.80;1.00
6270;DHT22;3168;51.684;6.954;2023-06-10T01:16:09;19.90;1.00
6270;DHT22;3168;51.684;6.954;2023-06-10T01:18:35;19.80;1.00
6270;DHT22;3168;51.684;6.954;2023-06-10T01:21:00;19.80;1.00
6270;DHT22;3168;51.684;6.954;2023-06-10T01:23:26;19.70;1.00
6270;DHT22;3168;51.684;6.954;2023-06-10T01:25:55;19.70;1.00
6270;DHT22;3168;51.684;6.954;2023-06-10T01:28:30;19.80;1.00
6270;DHT22;3168;51.684;6.954;2023-06-10T01:31:13;19.80;1.00
6270;DHT22;3168;51.684;6.954;2023-06-10T01:33:36;19.80;1.00
6270;DHT22;3168;51.684;6.954;2023-06-10T01:36:01;19.70;1.00
6270;DHT22;3168;51.684;6.954;2023-06-10T01:38:27;19.60;1.00
6270;DHT22;3168;51.684;6.954;2023-06-10T01:40:53;19.60;1.00
6270;DHT22;3168;51.684;6.954;2023-06-10T01:43:19;19.60;1.00
6270;DHT22;3168;51.684;6.954;2023-06-10T01:45:44;19.70;1.00
6270;DHT22;3168;51.684;6.954;2023-06-10T01:48:10;19.70;1.00
6270;DHT22;3168;51.684;6.954;2023-06-10T01:50:36;19.70;1.00
6270;DHT22;3168;51.684;6.954;2023-06-10T01:53:03;19.70;1.00
6270;DHT22;3168;51.684;6.954;2023-06-10T01:55:27;19.60;1.00
6270;DHT22;3168;51.684;6.954;2023-06-10T01:57:53;19.60;1.00
6270;DHT22;3168;51.684;6.954;2023-06-10T02:00:19;19.60;1.00
6270;DHT22;3168;51.684;6.954;2023-06-10T02:02:45;19.40;1.00
6270;DHT22;3168;51.684;6.954;2023-06-10T02:05:11;19.40;1.00
6270;DHT22;3168;51.684;6.954;2023-06-10T02:07:36;19.40;1.00
6270;DHT22;3168;51.684;6.954;2023-06-10T02:10:03;19.50;1.00
6270;DHT22;3168;51.684;6.954;2023-06-10T02:12:29;19.50;1.00
6270;DHT22;3168;51.684;6.954;2023-06-10T02:14:54;19.40;1.00
6270;DHT22;3168;51.684;6.954;2023-06-10T02:17:20;19.40;1.00
6270;DHT22;3168;51.684;6.954;2023-06-10T02:19:46;19.40;1.00
6270;DHT22;3168;51.684;6.954;2023-06-10T02:22:12;19.30;1.00
6270;DHT22;3168;51.684;6.954;2023-06-10T02:24:37;19.30;1.00
6270;DHT22;3168;51.684;6.954;2023-06-10T02:27:05;19.30;1.00
6270;DHT22;3168;51.684;6.954;2023-06-10T02:29:30;19.30;1.00
6270;DHT22;3168;51.684;6.954;2023-06-10T02:31:56;19.30;1.00
6270;DHT22;3168;51.684;6.954;2023-06-10T02:34:22;19.20;1.00
6270;DHT22;3168;51.684;6.954;2023-06-10T02:36:48;19.10;1.00
6270;DHT22;3168;51.684;6.954;2023-06-10T02:39:13;19.10;1.00
6270;DHT22;3168;51.684;6.954;2023-06-10T02:41:39;19.10;1.00
6270;DHT22;3168;51.684;6.954;2023-06-10T02:44:05;19.10;1.00
6270;DHT22;3168;51.684;6.954;2023-06-10T02:46:31;19.10;1.00
6270;DHT22;3168;51.684;6.954;2023-06-10T02:48:57;19.10;1.00
6270;DHT22;3168;51.684;6.954;2023-06-10T02:51:22;19.10;1.00
6270;DHT22;3168;51.684;6.954;2023-06-10T02:53:48;19.00;1.00
6270;DHT22;3168;51.684;6.954;2023-06-10T02:56:16;19.10;1.00
6270;DHT22;3168;51.684;6.954;2023-06-10T02:58:40;19.10;1.00
6270;DHT22;3168;51.684;6.954;2023-06-10T03:01:05;19.10;1.00
6270;DHT22;3168;51.684;6.954;2023-06-10T03:03:31;18.90;1.00
6270;DHT22;3168;51.684;6.954;2023-06-10T03:05:57;18.90;1.00
6270;DHT22;3168;51.684;6.954;2023-06-10T03:08:23;18.90;1.00
6270;DHT22;3168;51.684;6.954;2023-06-10T03:10:49;18.90;1.00
6270;DHT22;3168;51.684;6.954;2023-06-10T03:13:15;18.80;1.00
6270;DHT22;3168;51.684;6.954;2023-06-10T03:15:42;18.80;1.00
6270;DHT22;3168;51.684;6.954;2023-06-10T03:18:08;18.80;1.00
6270;DHT22;3168;51.684;6.954;2023-06-10T03:20:33;18.80;1.00
6270;DHT22;3168;51.684;6.954;2023-06-10T03:22:59;18.70;1.00
6270;DHT22;3168;51.684;6.954;2023-06-10T03:25:25;18.70;1.00
6270;DHT22;3168;51.684;6.954;2023-06-10T03:27:51;18.70;1.00
6270;DHT22;3168;51.684;6.954;2023-06-10T03:30:17;18.70;1.00
6270;DHT22;3168;51.684;6.954;2023-06-10T03:32:43;18.70;1.00
6270;DHT22;3168;51.684;6.954;2023-06-10T03:35:09;18.60;1.00
6270;DHT22;3168;51.684;6.954;2023-06-10T03:37:35;18.50;1.00
6270;DHT22;3168;51.684;6.954;2023-06-10T03:40:01;18.60;1.00
6270;DHT22;3168;51.684;6.954;2023-06-10T03:42:26;18.50;1.00
6270;DHT22;3168;51.684;6.954;2023-06-10T03:44:52;18.50;1.00
6270;DHT22;3168;51.684;6.954;2023-06-10T03:47:18;18.50;1.00
6270;DHT22;3168;51.684;6.954;2023-06-10T03:49:44;18.50;1.00
6270;DHT22;3168;51.684;6.954;2023-06-10T03:52:10;18.50;1.00
6270;DHT22;3168;51.684;6.954;2023-06-10T03:54:35;18.50;1.00
6270;DHT22;3168;51.684;6.954;2023-06-10T03:57:01;18.50;1.00
6270;DHT22;3168;51.684;6.954;2023-06-10T03:59:27;18.60;1.00
6270;DHT22;3168;51.684;6.954;2023-06-10T04:01:53;18.60;1.00
6270;DHT22;3168;51.684;6.954;2023-06-10T04:04:19;18.50;1.00
6270;DHT22;3168;51.684;6.954;2023-06-10T04:06:45;18.60;1.00
6270;DHT22;3168;51.684;6.954;2023-06-10T04:09:10;18.70;1.00
6270;DHT22;3168;51.684;6.954;2023-06-10T04:11:36;18.70;1.00
6270;DHT22;3168;51.684;6.954;2023-06-10T04:14:02;18.60;1.00
6270;DHT22;3168;51.684;6.954;2023-06-10T04:16:28;18.70;1.00
6270;DHT22;3168;51.684;6.954;2023-06-10T04:18:54;18.70;1.00
6270;DHT22;3168;51.684;6.954;2023-06-10T04:21:20;18.70;1.00
6270;DHT22;3168;51.684;6.954;2023-06-10T04:23:46;18.80;1.00
6270;DHT22;3168;51.684;6.954;2023-06-10T04:26:11;18.70;1.00
6270;DHT22;3168;51.684;6.954;2023-06-10T04:28:38;18.80;1.00
6270;DHT22;3168;51.684;6.954;2023-06-10T04:31:04;18.70;1.00
6270;DHT22;3168;51.684;6.954;2023-06-10T04:33:30;18.80;1.00
6270;DHT22;3168;51.684;6.954;2023-06-10T04:35:56;18.90;1.00
6270;DHT22;3168;51.684;6.954;2023-06-10T04:38:22;18.90;1.00
6270;DHT22;3168;51.684;6.954;2023-06-10T04:40:48;18.90;1.00
6270;DHT22;3168;51.684;6.954;2023-06-10T04:43:13;19.00;1.00
6270;DHT22;3168;51.684;6.954;2023-06-10T04:45:39;19.00;1.00
6270;DHT22;3168;51.684;6.954;2023-06-10T04:48:05;19.00;1.00
6270;DHT22;3168;51.684;6.954;2023-06-10T04:50:31;18.90;1.00
6270;DHT22;3168;51.684;6.954;2023-06-10T04:52:57;19.00;1.00
6270;DHT22;3168;51.684;6.954;2023-06-10T04:55:23;19.00;1.00
6270;DHT22;3168;51.684;6.954;2023-06-10T04:57:48;19.10;1.00
6270;DHT22;3168;51.684;6.954;2023-06-10T05:00:15;19.20;1.00
6270;DHT22;3168;51.684;6.954;2023-06-10T05:02:41;19.30;1.00
6270;DHT22;3168;51.684;6.954;2023-06-10T05:05:07;19.20;1.00
6270;DHT22;3168;51.684;6.954;2023-06-10T05:07:33;19.20;1.00
6270;DHT22;3168;51.684;6.954;2023-06-10T05:09:58;19.40;1.00
6270;DHT22;3168;51.684;6.954;2023-06-10T05:12:24;19.40;1.00
6270;DHT22;3168;51.684;6.954;2023-06-10T05:14:50;19.40;1.00
6270;DHT22;3168;51.684;6.954;2023-06-10T05:17:16;19.40;1.00
6270;DHT22;3168;51.684;6.954;2023-06-10T05:19:42;19.50;1.00
6270;DHT22;3168;51.684;6.954;2023-06-10T05:22:08;19.70;1.00
6270;DHT22;3168;51.684;6.954;2023-06-10T05:24:33;19.60;1.00
6270;DHT22;3168;51.684;6.954;2023-06-10T05:26:59;19.70;1.00
6270;DHT22;3168;51.684;6.954;2023-06-10T05:29:25;19.80;1.00
6270;DHT22;3168;51.684;6.954;2023-06-10T05:31:51;19.80;1.00
6270;DHT22;3168;51.684;6.954;2023-06-10T05:34:17;19.90;1.00
6270;DHT22;3168;51.684;6.954;2023-06-10T05:36:43;20.00;1.00
6270;DHT22;3168;51.684;6.954;2023-06-10T05:39:09;19.90;1.00
6270;DHT22;3168;51.684;6.954;2023-06-10T05:41:35;20.00;1.00
6270;DHT22;3168;51.684;6.954;2023-06-10T05:44:01;20.20;1.00
6270;DHT22;3168;51.684;6.954;2023-06-10T05:46:27;20.10;1.00
6270;DHT22;3168;51.684;6.954;2023-06-10T05:48:52;20.10;1.00
6270;DHT22;3168;51.684;6.954;2023-06-10T05:51:18;20.10;1.00
6270;DHT22;3168;51.684;6.954;2023-06-10T05:53:44;20.20;1.00
6270;DHT22;3168;51.684;6.954;2023-06-10T05:56:10;20.30;1.00
6270;DHT22;3168;51.684;6.954;2023-06-10T05:58:36;20.40;1.00
6270;DHT22;3168;51.684;6.954;2023-06-10T06:01:01;20.40;1.00
6270;DHT22;3168;51.684;6.954;2023-06-10T06:03:27;20.60;1.00
6270;DHT22;3168;51.684;6.954;2023-06-10T06:05:53;20.60;1.00
6270;DHT22;3168;51.684;6.954;2023-06-10T06:08:19;20.60;1.00
6270;DHT22;3168;51.684;6.954;2023-06-10T06:10:45;20.60;1.00
6270;DHT22;3168;51.684;6.954;2023-06-10T06:13:10;20.70;1.00
6270;DHT22;3168;51.684;6.954;2023-06-10T06:15:37;21.00;1.00
6270;DHT22;3168;51.684;6.954;2023-06-10T06:18:03;20.90;1.00
6270;DHT22;3168;51.684;6.954;2023-06-10T06:20:28;20.90;1.00
6270;DHT22;3168;51.684;6.954;2023-06-10T06:22:54;20.90;1.00
6270;DHT22;3168;51.684;6.954;2023-06-10T06:25:20;21.10;1.00
6270;DHT22;3168;51.684;6.954;2023-06-10T06:27:46;21.20;1.00
6270;DHT22;3168;51.684;6.954;2023-06-10T06:30:12;21.20;1.00
6270;DHT22;3168;51.684;6.954;2023-06-10T06:32:38;21.10;1.00
6270;DHT22;3168;51.684;6.954;2023-06-10T06:35:04;21.20;1.00
6270;DHT22;3168;51.684;6.954;2023-06-10T06:37:30;21.30;1.00
6270;DHT22;3168;51.684;6.954;2023-06-10T06:39:57;21.50;1.00
6270;DHT22;3168;51.684;6.954;2023-06-10T06:42:22;21.60;1.00
6270;DHT22;3168;51.684;6.954;2023-06-10T06:44:48;21.60;1.00
6270;DHT22;3168;51.684;6.954;2023-06-10T06:47:13;21.70;1.00
6270;DHT22;3168;51.684;6.954;2023-06-10T06:49:39;21.70;1.00
6270;DHT22;3168;51.684;6.954;2023-06-10T06:52:05;21.80;1.00
6270;DHT22;3168;51.684;6.954;2023-06-10T06:54:31;21.90;1.00
6270;DHT22;3168;51.684;6.954;2023-06-10T06:56:57;21.90;1.00
6270;DHT22;3168;51.684;6.954;2023-06-10T06:59:23;21.90;1.00
6270;DHT22;3168;51.684;6.954;2023-06-10T07:01:49;22.10;1.00
6270;DHT22;3168;51.684;6.954;2023-06-10T07:04:15;22.10;1.00
6270;DHT22;3168;51.684;6.954;2023-06-10T07:06:41;22.10;1.00
6270;DHT22;3168;51.684;6.954;2023-06-10T07:09:08;22.00;1.00
6270;DHT22;3168;51.684;6.954;2023-06-10T07:11:34;22.20;1.00
6270;DHT22;3168;51.684;6.954;2023-06-10T07:14:00;22.40;1.00
6270;DHT22;3168;51.684;6.954;2023-06-10T07:16:26;22.40;1.00
6270;DHT22;3168;51.684;6.954;2023-06-10T07:18:53;22.80;1.00
6270;DHT22;3168;51.684;6.954;2023-06-10T07:21:18;22.80;1.00
6270;DHT22;3168;51.684;6.954;2023-06-10T07:23:44;22.90;1.00
6270;DHT22;3168;51.684;6.954;2023-06-10T07:26:11;22.90;1.00
6270;DHT22;3168;51.684;6.954;2023-06-10T07:28:37;22.90;1.00
6270;DHT22;3168;51.684;6.954;2023-06-10T07:31:03;23.10;1.00
6270;DHT22;3168;51.684;6.954;2023-06-10T07:33:29;23.00;1.00
6270;DHT22;3168;51.684;6.954;2023-06-10T07:35:55;23.10;1.00
6270;DHT22;3168;51.684;6.954;2023-06-10T07:38:21;23.20;1.00
6270;DHT22;3168;51.684;6.954;2023-06-10T07:40:47;23.30;1.00
6270;DHT22;3168;51.684;6.954;2023-06-10T07:43:13;23.30;1.00
6270;DHT22;3168;51.684;6.954;2023-06-10T07:45:40;23.40;1.00
6270;DHT22;3168;51.684;6.954;2023-06-10T07:48:05;23.50;1.00
6270;DHT22;3168;51.684;6.954;2023-06-10T07:50:31;23.70;1.00
6270;DHT22;3168;51.684;6.954;2023-06-10T07:52:57;23.70;1.00
6270;DHT22;3168;51.684;6.954;2023-06-10T07:55:23;23.70;1.00
6270;DHT22;3168;51.684;6.954;2023-06-10T07:57:49;23.80;1.00
6270;DHT22;3168;51.684;6.954;2023-06-10T08:00:15;23.80;1.00
6270;DHT22;3168;51.684;6.954;2023-06-10T08:02:41;24.10;1.00
6270;DHT22;3168;51.684;6.954;2023-06-10T08:05:07;24.10;1.00
6270;DHT22;3168;51.684;6.954;2023-06-10T08:07:33;24.20;1.00
6270;DHT22;3168;51.684;6.954;2023-06-10T08:09:59;24.40;1.00
6270;DHT22;3168;51.684;6.954;2023-06-10T08:12:24;24.30;1.00
6270;DHT22;3168;51.684;6.954;2023-06-10T08:14:50;24.30;1.00
6270;DHT22;3168;51.684;6.954;2023-06-10T08:17:16;24.40;1.00
6270;DHT22;3168;51.684;6.954;2023-06-10T08:19:42;24.50;1.00
6270;DHT22;3168;51.684;6.954;2023-06-10T08:22:08;24.60;1.00
6270;DHT22;3168;51.684;6.954;2023-06-10T08:24:34;24.70;1.00
6270;DHT22;3168;51.684;6.954;2023-06-10T08:26:59;24.60;1.00
6270;DHT22;3168;51.684;6.954;2023-06-10T08:29:25;24.70;1.00
6270;DHT22;3168;51.684;6.954;2023-06-10T08:31:51;24.80;1.00
6270;DHT22;3168;51.684;6.954;2023-06-10T08:34:18;25.10;1.00
6270;DHT22;3168;51.684;6.954;2023-06-10T08:36:43;25.10;1.00
6270;DHT22;3168;51.684;6.954;2023-06-10T08:39:09;25.10;1.00
6270;DHT22;3168;51.684;6.954;2023-06-10T08:41:37;25.30;1.00
6270;DHT22;3168;51.684;6.954;2023-06-10T08:44:08;25.30;1.00
6270;DHT22;3168;51.684;6.954;2023-06-10T08:46:29;25.30;1.00
6270;DHT22;3168;51.684;6.954;2023-06-10T08:48:55;25.40;1.00
6270;DHT22;3168;51.684;6.954;2023-06-10T08:51:21;25.60;1.00
6270;DHT22;3168;51.684;6.954;2023-06-10T08:53:49;25.70;1.00
6270;DHT22;3168;51.684;6.954;2023-06-10T08:56:13;25.80;1.00
6270;DHT22;3168;51.684;6.954;2023-06-10T08:58:39;25.90;1.00
6270;DHT22;3168;51.684;6.954;2023-06-10T09:01:05;26.10;1.00
6270;DHT22;3168;51.684;6.954;2023-06-10T09:03:31;26.10;1.00
6270;DHT22;3168;51.684;6.954;2023-06-10T09:05:57;26.10;1.00
6270;DHT22;3168;51.684;6.954;2023-06-10T09:08:22;26.10;1.00
6270;DHT22;3168;51.684;6.954;2023-06-10T09:10:48;26.10;1.00
6270;DHT22;3168;51.684;6.954;2023-06-10T09:13:14;26.30;1.00
6270;DHT22;3168;51.684;6.954;2023-06-10T09:15:41;26.40;1.00
6270;DHT22;3168;51.684;6.954;2023-06-10T09:18:07;26.40;1.00
6270;DHT22;3168;51.684;6.954;2023-06-10T09:20:32;26.30;1.00
6270;DHT22;3168;51.684;6.954;2023-06-10T09:22:59;26.40;1.00
6270;DHT22;3168;51.684;6.954;2023-06-10T09:25:34;26.60;1.00
6270;DHT22;3168;51.684;6.954;2023-06-10T09:27:50;26.70;1.00
6270;DHT22;3168;51.684;6.954;2023-06-10T09:30:26;26.80;1.00
6270;DHT22;3168;51.684;6.954;2023-06-10T09:32:52;26.90;1.00
6270;DHT22;3168;51.684;6.954;2023-06-10T09:35:17;27.30;1.00
6270;DHT22;3168;51.684;6.954;2023-06-10T09:37:43;27.30;1.00
6270;DHT22;3168;51.684;6.954;2023-06-10T09:40:09;27.30;1.00
6270;DHT22;3168;51.684;6.954;2023-06-10T09:42:36;27.20;1.00
6270;DHT22;3168;51.684;6.954;2023-06-10T09:45:02;27.40;1.00
6270;DHT22;3168;51.684;6.954;2023-06-10T09:47:27;27.30;1.00
6270;DHT22;3168;51.684;6.954;2023-06-10T09:49:53;27.30;1.00
6270;DHT22;3168;51.684;6.954;2023-06-10T09:52:23;27.40;1.00
6270;DHT22;3168;51.684;6.954;2023-06-10T09:54:48;27.60;1.00
6270;DHT22;3168;51.684;6.954;2023-06-10T09:57:14;27.50;1.00
6270;DHT22;3168;51.684;6.954;2023-06-10T09:59:40;27.60;1.00
6270;DHT22;3168;51.684;6.954;2023-06-10T10:02:05;27.60;1.00
6270;DHT22;3168;51.684;6.954;2023-06-10T10:04:31;27.60;1.00
6270;DHT22;3168;51.684;6.954;2023-06-10T10:06:57;27.70;1.00
6270;DHT22;3168;51.684;6.954;2023-06-10T10:09:23;27.80;1.00
6270;DHT22;3168;51.684;6.954;2023-06-10T10:11:49;27.80;1.00
6270;DHT22;3168;51.684;6.954;2023-06-10T10:14:15;27.80;1.00
6270;DHT22;3168;51.684;6.954;2023-06-10T10:16:41;27.90;1.00
6270;DHT22;3168;51.684;6.954;2023-06-10T10:19:08;28.20;1.00
6270;DHT22;3168;51.684;6.954;2023-06-10T10:21:35;28.30;1.00
6270;DHT22;3168;51.684;6.954;2023-06-10T10:24:18;28.30;1.00
6270;DHT22;3168;51.684;6.954;2023-06-10T10:26:42;28.50;1.00
6270;DHT22;3168;51.684;6.954;2023-06-10T10:29:11;28.40;1.00
6270;DHT22;3168;51.684;6.954;2023-06-10T10:31:37;28.60;1.00
6270;DHT22;3168;51.684;6.954;2023-06-10T10:34:04;28.60;1.00
6270;DHT22;3168;51.684;6.954;2023-06-10T10:36:29;28.60;1.00
6270;DHT22;3168;51.684;6.954;2023-06-10T10:38:55;28.60;1.00
6270;DHT22;3168;51.684;6.954;2023-06-10T10:41:21;28.80;1.00
6270;DHT22;3168;51.684;6.954;2023-06-10T10:43:47;28.80;1.00
6270;DHT22;3168;51.684;6.954;2023-06-10T10:46:13;29.00;1.00
6270;DHT22;3168;51.684;6.954;2023-06-10T10:48:39;29.10;1.00
6270;DHT22;3168;51.684;6.954;2023-06-10T10:51:05;29.00;1.00
6270;DHT22;3168;51.684;6.954;2023-06-10T10:53:30;29.00;1.00
6270;DHT22;3168;51.684;6.954;2023-06-10T10:56:00;28.80;1.00
6270;DHT22;3168;51.684;6.954;2023-06-10T10:58:25;28.90;1.00
6270;DHT22;3168;51.684;6.954;2023-06-10T11:00:51;29.10;1.00
6270;DHT22;3168;51.684;6.954;2023-06-10T11:03:17;29.20;1.00
6270;DHT22;3168;51.684;6.954;2023-06-10T11:05:45;29.10;1.00
6270;DHT22;3168;51.684;6.954;2023-06-10T11:08:10;29.10;1.00
6270;DHT22;3168;51.684;6.954;2023-06-10T11:10:37;29.10;1.00
6270;DHT22;3168;51.684;6.954;2023-06-10T11:13:06;29.10;1.00
6270;DHT22;3168;51.684;6.954;2023-06-10T11:15:31;29.20;1.00
6270;DHT22;3168;51.684;6.954;2023-06-10T11:18:06;29.40;1.00
6270;DHT22;3168;51.684;6.954;2023-06-10T11:20:51;29.30;1.00
6270;DHT22;3168;51.684;6.954;2023-06-10T11:23:37;29.20;1.00
6270;DHT22;3168;51.684;6.954;2023-06-10T11:26:11;29.30;1.00
6270;DHT22;3168;51.684;6.954;2023-06-10T11:28:36;29.50;1.00
6270;DHT22;3168;51.684;6.954;2023-06-10T11:31:01;29.70;1.00
6270;DHT22;3168;51.684;6.954;2023-06-10T11:33:27;29.40;1.00
6270;DHT22;3168;51.684;6.954;2023-06-10T11:35:53;29.50;1.00
6270;DHT22;3168;51.684;6.954;2023-06-10T11:38:19;29.60;1.00
6270;DHT22;3168;51.684;6.954;2023-06-10T11:40:49;29.70;1.00
6270;DHT22;3168;51.684;6.954;2023-06-10T11:43:17;29.20;1.00
6270;DHT22;3168;51.684;6.954;2023-06-10T11:45:43;29.30;1.00
6270;DHT22;3168;51.684;6.954;2023-06-10T11:48:09;29.40;1.00
6270;DHT22;3168;51.684;6.954;2023-06-10T11:50:35;29.60;1.00
6270;DHT22;3168;51.684;6.954;2023-06-10T11:53:00;29.80;1.00
6270;DHT22;3168;51.684;6.954;2023-06-10T11:58:04;30.30;1.00
6270;DHT22;3168;51.684;6.954;2023-06-10T12:00:30;30.40;1.00
6270;DHT22;3168;51.684;6.954;2023-06-10T12:02:57;30.50;1.00
6270;DHT22;3168;51.684;6.954;2023-06-10T12:05:22;30.50;1.00
6270;DHT22;3168;51.684;6.954;2023-06-10T12:07:48;30.50;1.00
6270;DHT22;3168;51.684;6.954;2023-06-10T12:10:14;30.50;1.00
6270;DHT22;3168;51.684;6.954;2023-06-10T12:12:40;30.50;1.00
6270;DHT22;3168;51.684;6.954;2023-06-10T12:15:06;30.50;1.00
6270;DHT22;3168;51.684;6.954;2023-06-10T12:17:36;30.50;1.00
6270;DHT22;3168;51.684;6.954;2023-06-10T12:20:02;30.70;1.00
6270;DHT22;3168;51.684;6.954;2023-06-10T12:22:35;30.80;1.00
6270;DHT22;3168;51.684;6.954;2023-06-10T12:24:58;30.60;1.00
6270;DHT22;3168;51.684;6.954;2023-06-10T12:27:25;30.60;1.00
6270;DHT22;3168;51.684;6.954;2023-06-10T12:29:52;30.30;1.00
6270;DHT22;3168;51.684;6.954;2023-06-10T12:32:17;30.50;1.00
6270;DHT22;3168;51.684;6.954;2023-06-10T12:34:43;30.60;1.00
6270;DHT22;3168;51.684;6.954;2023-06-10T12:37:10;30.00;1.00
6270;DHT22;3168;51.684;6.954;2023-06-10T12:39:35;30.30;1.00
6270;DHT22;3168;51.684;6.954;2023-06-10T12:42:01;30.50;1.00
6270;DHT22;3168;51.684;6.954;2023-06-10T12:44:28;31.00;1.00
6270;DHT22;3168;51.684;6.954;2023-06-10T12:46:54;31.00;1.00
6270;DHT22;3168;51.684;6.954;2023-06-10T12:49:19;30.70;1.00
6270;DHT22;3168;51.684;6.954;2023-06-10T12:51:45;30.80;1.00
6270;DHT22;3168;51.684;6.954;2023-06-10T12:54:11;31.10;1.00
6270;DHT22;3168;51.684;6.954;2023-06-10T12:56:37;31.10;1.00
6270;DHT22;3168;51.684;6.954;2023-06-10T12:59:03;31.10;1.00
6270;DHT22;3168;51.684;6.954;2023-06-10T13:01:29;31.10;1.00
6270;DHT22;3168;51.684;6.954;2023-06-10T13:03:54;31.10;1.00
6270;DHT22;3168;51.684;6.954;2023-06-10T13:06:20;31.20;1.00
6270;DHT22;3168;51.684;6.954;2023-06-10T13:08:46;31.10;1.00
6270;DHT22;3168;51.684;6.954;2023-06-10T13:11:12;31.20;1.00
6270;DHT22;3168;51.684;6.954;2023-06-10T13:13:37;31.20;1.00
6270;DHT22;3168;51.684;6.954;2023-06-10T13:16:04;31.40;1.00
6270;DHT22;3168;51.684;6.954;2023-06-10T13:18:30;31.80;1.00
6270;DHT22;3168;51.684;6.954;2023-06-10T13:20:56;31.60;1.00
6270;DHT22;3168;51.684;6.954;2023-06-10T13:23:21;31.50;1.00
6270;DHT22;3168;51.684;6.954;2023-06-10T13:25:47;31.40;1.00
6270;DHT22;3168;51.684;6.954;2023-06-10T13:28:13;31.30;1.00
6270;DHT22;3168;51.684;6.954;2023-06-10T13:30:39;31.30;1.00
6270;DHT22;3168;51.684;6.954;2023-06-10T13:33:05;31.30;1.00
6270;DHT22;3168;51.684;6.954;2023-06-10T13:35:30;31.50;1.00
6270;DHT22;3168;51.684;6.954;2023-06-10T13:37:56;31.60;1.00
6270;DHT22;3168;51.684;6.954;2023-06-10T13:40:22;31.60;1.00
6270;DHT22;3168;51.684;6.954;2023-06-10T13:42:49;31.50;1.00
6270;DHT22;3168;51.684;6.954;2023-06-10T13:45:14;31.50;1.00
6270;DHT22;3168;51.684;6.954;2023-06-10T13:47:40;31.70;1.00
6270;DHT22;3168;51.684;6.954;2023-06-10T13:50:07;31.80;1.00
6270;DHT22;3168;51.684;6.954;2023-06-10T13:52:33;31.90;1.00
6270;DHT22;3168;51.684;6.954;2023-06-10T13:54:58;32.00;1.00
6270;DHT22;3168;51.684;6.954;2023-06-10T13:57:25;32.20;1.00
6270;DHT22;3168;51.684;6.954;2023-06-10T13:59:51;32.50;1.00
6270;DHT22;3168;51.684;6.954;2023-06-10T14:02:17;32.50;1.00
6270;DHT22;3168;51.684;6.954;2023-06-10T14:04:42;33.30;1.00
6270;DHT22;3168;51.684;6.954;2023-06-10T14:07:08;33.80;1.00
6270;DHT22;3168;51.684;6.954;2023-06-10T14:09:34;33.80;1.00
6270;DHT22;3168;51.684;6.954;2023-06-10T14:12:00;33.40;1.00
6270;DHT22;3168;51.684;6.954;2023-06-10T14:14:26;33.40;1.00
6270;DHT22;3168;51.684;6.954;2023-06-10T14:16:51;33.50;1.00
6270;DHT22;3168;51.684;6.954;2023-06-10T14:19:17;33.80;1.00
6270;DHT22;3168;51.684;6.954;2023-06-10T14:21:43;34.00;1.00
6270;DHT22;3168;51.684;6.954;2023-06-10T14:24:09;33.70;1.00
6270;DHT22;3168;51.684;6.954;2023-06-10T14:26:35;33.40;1.00
6270;DHT22;3168;51.684;6.954;2023-06-10T14:29:00;33.00;1.00
6270;DHT22;3168;51.684;6.954;2023-06-10T14:31:26;33.10;1.00
6270;DHT22;3168;51.684;6.954;2023-06-10T14:33:52;33.00;1.00
6270;DHT22;3168;51.684;6.954;2023-06-10T14:36:18;33.30;1.00
6270;DHT22;3168;51.684;6.954;2023-06-10T14:38:44;33.50;1.00
6270;DHT22;3168;51.684;6.954;2023-06-10T14:41:09;33.70;1.00
6270;DHT22;3168;51.684;6.954;2023-06-10T14:43:35;33.80;1.00
6270;DHT22;3168;51.684;6.954;2023-06-10T14:46:01;34.40;1.00
6270;DHT22;3168;51.684;6.954;2023-06-10T14:48:27;34.60;1.00
6270;DHT22;3168;51.684;6.954;2023-06-10T14:50:53;34.60;1.00
6270;DHT22;3168;51.684;6.954;2023-06-10T14:53:18;33.80;1.00
6270;DHT22;3168;51.684;6.954;2023-06-10T14:55:44;33.90;1.00
6270;DHT22;3168;51.684;6.954;2023-06-10T14:58:10;33.40;1.00
6270;DHT22;3168;51.684;6.954;2023-06-10T15:00:36;33.60;1.00
6270;DHT22;3168;51.684;6.954;2023-06-10T15:03:02;33.90;1.00
6270;DHT22;3168;51.684;6.954;2023-06-10T15:05:28;33.60;1.00
6270;DHT22;3168;51.684;6.954;2023-06-10T15:07:54;34.00;1.00
6270;DHT22;3168;51.684;6.954;2023-06-10T15:10:20;34.10;1.00
6270;DHT22;3168;51.684;6.954;2023-06-10T15:12:45;34.10;1.00
6270;DHT22;3168;51.684;6.954;2023-06-10T15:15:11;34.50;1.00
6270;DHT22;3168;51.684;6.954;2023-06-10T15:17:37;34.30;1.00
6270;DHT22;3168;51.684;6.954;2023-06-10T15:20:04;34.00;1.00
6270;DHT22;3168;51.684;6.954;2023-06-10T15:22:30;34.40;1.00
6270;DHT22;3168;51.684;6.954;2023-06-10T15:24:56;34.70;1.00
6270;DHT22;3168;51.684;6.954;2023-06-10T15:27:21;34.60;1.00
6270;DHT22;3168;51.684;6.954;2023-06-10T15:29:47;34.30;1.00
6270;DHT22;3168;51.684;6.954;2023-06-10T15:32:13;34.10;1.00
6270;DHT22;3168;51.684;6.954;2023-06-10T15:34:39;34.30;1.00
6270;DHT22;3168;51.684;6.954;2023-06-10T15:37:05;34.80;1.00
6270;DHT22;3168;51.684;6.954;2023-06-10T15:39:31;34.80;1.00
6270;DHT22;3168;51.684;6.954;2023-06-10T15:41:57;34.40;1.00
6270;DHT22;3168;51.684;6.954;2023-06-10T15:44:23;34.60;1.00
6270;DHT22;3168;51.684;6.954;2023-06-10T15:46:49;34.40;1.00
6270;DHT22;3168;51.684;6.954;2023-06-10T15:49:14;34.00;1.00
6270;DHT22;3168;51.684;6.954;2023-06-10T15:51:40;33.00;1.00
6270;DHT22;3168;51.684;6.954;2023-06-10T15:54:06;32.80;1.00
6270;DHT22;3168;51.684;6.954;2023-06-10T15:56:32;32.40;1.00
6270;DHT22;3168;51.684;6.954;2023-06-10T15:58:58;31.40;1.00
6270;DHT22;3168;51.684;6.954;2023-06-10T16:01:23;31.10;1.00
6270;DHT22;3168;51.684;6.954;2023-06-10T16:03:49;30.80;1.00
6270;DHT22;3168;51.684;6.954;2023-06-10T16:06:15;30.60;1.00
6270;DHT22;3168;51.684;6.954;2023-06-10T16:08:41;30.90;1.00
6270;DHT22;3168;51.684;6.954;2023-06-10T16:11:07;30.50;1.00